createdAt,value
2019-04-14T00:01:36.978Z,99.90
2019-04-14T00:04:26.935Z,99.90
2019-04-14T00:06:59.163Z,99.90
2019-04-14T00:09:31.493Z,99.90
2019-04-14T00:12:05.594Z,99.90
2019-04-14T00:14:35.758Z,99.90
2019-04-14T00:17:08.410Z,99.90
2019-04-14T00:19:39.842Z,99.90
2019-04-14T00:22:11.659Z,99.90
2019-04-14T00:24:44.558Z,99.90
2019-04-14T00:27:17.056Z,99.90
2019-04-14T00:29:48.456Z,99.90
2019-04-14T00:32:20.515Z,99.90
2019-04-14T00:35:16.754Z,99.90
2019-04-14T00:38:06.292Z,99.90
2019-04-14T00:40:43.259Z,99.90
2019-04-14T00:43:33.017Z,99.90
2019-04-14T00:46:23.442Z,99.90
2019-04-14T00:48:54.613Z,99.90
2019-04-14T00:51:26.578Z,99.90
2019-04-14T00:54:02.248Z,99.90
2019-04-14T00:56:41.115Z,99.90
2019-04-14T00:59:22.223Z,99.90
2019-04-14T01:01:53.454Z,99.90
2019-04-14T01:04:25.125Z,99.90
2019-04-14T01:06:57.584Z,99.90
2019-04-14T01:09:28.809Z,99.90
2019-04-14T01:12:01.676Z,99.90
2019-04-14T01:14:34.265Z,99.90
2019-04-14T01:17:08.984Z,99.90
2019-04-14T01:19:40.167Z,99.90
2019-04-14T01:22:11.983Z,99.90
2019-04-14T01:24:43.141Z,99.90
2019-04-14T01:27:14.607Z,99.90
2019-04-14T01:29:45.739Z,99.90
2019-04-14T01:32:17.611Z,99.90
2019-04-14T01:34:51.208Z,99.90
2019-04-14T01:37:22.493Z,99.90
2019-04-14T01:39:54.573Z,99.90
2019-04-14T01:42:26.694Z,99.90
2019-04-14T01:44:59.163Z,99.90
2019-04-14T01:47:31.372Z,99.90
2019-04-14T01:50:03.723Z,99.90
2019-04-14T01:53:03.265Z,99.90
2019-04-14T01:55:48.407Z,99.90
2019-04-14T01:58:22.878Z,99.90
2019-04-14T02:01:19.570Z,99.90
2019-04-14T02:03:51.928Z,99.90
2019-04-14T02:06:24.449Z,99.90
2019-04-14T02:08:56.831Z,99.90
2019-04-14T02:11:29.203Z,99.90
2019-04-14T02:14:01.497Z,99.90
2019-04-14T02:16:40.173Z,99.90
2019-04-14T02:19:06.726Z,99.90
2019-04-14T02:21:38.883Z,99.90
2019-04-14T02:24:11.266Z,99.90
2019-04-14T02:26:43.705Z,99.90
2019-04-14T02:29:15.160Z,99.90
2019-04-14T02:32:18.638Z,99.90
2019-04-14T02:34:48.032Z,99.90
2019-04-14T02:37:19.235Z,99.90
2019-04-14T02:39:53.582Z,99.90
2019-04-14T02:50:15.497Z,99.90
2019-04-14T02:52:34.992Z,99.90
2019-04-14T02:55:08.766Z,99.90
2019-04-14T02:57:30.613Z,99.90
2019-04-14T03:00:16.728Z,99.90
2019-04-14T03:02:56.426Z,99.90
2019-04-14T03:05:22.314Z,99.90
2019-04-14T03:07:54.446Z,99.90
2019-04-14T03:10:24.518Z,99.90
2019-04-14T03:12:57.845Z,99.90
2019-04-14T03:15:36.788Z,99.90
2019-04-14T03:18:24.438Z,99.90
2019-04-14T03:21:11.178Z,99.90
2019-04-14T03:23:48.688Z,99.90
2019-04-14T03:26:41.916Z,99.90
2019-04-14T03:29:23.395Z,99.90
2019-04-14T03:39:31.985Z,99.90
2019-04-14T03:42:01.527Z,99.90
2019-04-14T03:44:41.426Z,99.90
2019-04-14T03:47:13.719Z,99.90
2019-04-14T03:49:45.438Z,99.90
2019-04-14T03:52:19.551Z,99.90
2019-04-14T03:54:42.600Z,99.90
2019-04-14T03:56:55.871Z,99.90
2019-04-14T03:59:28.070Z,99.90
2019-04-14T04:02:00.749Z,99.90
2019-04-14T04:04:32.061Z,99.90
2019-04-14T04:07:03.864Z,99.90
2019-04-14T04:09:43.363Z,99.90
2019-04-14T04:12:14.489Z,99.90
2019-04-14T04:14:46.404Z,99.90
2019-04-14T04:17:39.402Z,99.90
2019-04-14T04:20:24.756Z,99.90
2019-04-14T04:23:18.387Z,99.90
2019-04-14T04:26:01.835Z,99.90
2019-04-14T04:28:51.729Z,99.90
2019-04-14T04:31:35.652Z,99.90
2019-04-14T04:34:29.435Z,99.90
2019-04-14T04:37:27.937Z,99.90
2019-04-14T04:40:02.902Z,99.90
2019-04-14T04:42:35.080Z,99.90
2019-04-14T04:45:06.411Z,99.90
2019-04-14T04:47:38.351Z,99.90
2019-04-14T04:50:10.688Z,99.90
2019-04-14T04:52:42.941Z,99.90
2019-04-14T04:55:14.109Z,99.90
2019-04-14T04:57:46.007Z,99.90
2019-04-14T05:00:17.865Z,99.90
2019-04-14T05:02:49.094Z,99.90
2019-04-14T05:05:55.776Z,99.90
2019-04-14T05:08:26.943Z,99.90
2019-04-14T05:11:03.457Z,99.90
2019-04-14T05:13:38.168Z,99.90
2019-04-14T05:16:10.687Z,99.90
2019-04-14T05:18:41.960Z,99.90
2019-04-14T05:21:13.073Z,99.90
2019-04-14T05:23:45.238Z,99.90
2019-04-14T05:26:17.694Z,99.90
2019-04-14T05:28:48.999Z,99.90
2019-04-14T05:31:20.726Z,99.90
2019-04-14T05:33:53.242Z,99.90
2019-04-14T05:36:25.937Z,99.90
2019-04-14T05:38:58.077Z,99.90
2019-04-14T05:41:30.787Z,99.90
2019-04-14T05:44:03.577Z,99.90
2019-04-14T05:46:35.926Z,99.90
2019-04-14T05:49:07.181Z,99.90
2019-04-14T05:51:39.139Z,99.90
2019-04-14T05:54:10.709Z,99.90
2019-04-14T05:56:42.580Z,99.90
2019-04-14T05:59:14.013Z,99.90
2019-04-14T06:01:46.471Z,99.90
2019-04-14T06:04:17.865Z,99.90
2019-04-14T06:06:50.296Z,99.90
2019-04-14T06:09:21.561Z,99.90
2019-04-14T06:11:52.733Z,99.90
2019-04-14T06:14:23.962Z,99.90
2019-04-14T06:16:56.185Z,99.90
2019-04-14T06:19:37.121Z,99.90
2019-04-14T06:22:00.565Z,99.90
2019-04-14T06:24:31.762Z,99.90
2019-04-14T06:27:03.005Z,99.90
2019-04-14T06:29:34.187Z,99.90
2019-04-14T06:32:24.451Z,99.90
2019-04-14T06:35:20.517Z,99.90
2019-04-14T06:38:11.347Z,99.90
2019-04-14T06:40:57.316Z,99.90
2019-04-14T06:43:35.772Z,99.90
2019-04-14T06:46:10.542Z,99.90
2019-04-14T06:48:41.997Z,99.90
2019-04-14T06:51:13.309Z,99.90
2019-04-14T06:53:44.517Z,99.90
2019-04-14T06:56:15.780Z,99.90
2019-04-14T06:58:47.034Z,99.90
2019-04-14T07:01:18.410Z,99.90
2019-04-14T07:03:49.664Z,99.90
2019-04-14T07:06:21.064Z,99.90
2019-04-14T07:08:52.337Z,99.90
2019-04-14T07:11:23.603Z,99.90
2019-04-14T07:13:54.971Z,99.90
2019-04-14T07:16:26.258Z,99.90
2019-04-14T07:18:58.576Z,99.90
2019-04-14T07:21:29.780Z,99.90
2019-04-14T07:24:01.003Z,99.90
2019-04-14T07:26:32.250Z,99.90
2019-04-14T07:29:03.458Z,99.90
2019-04-14T07:31:56.229Z,99.90
2019-04-14T07:34:46.262Z,99.90
2019-04-14T07:37:35.347Z,99.90
2019-04-14T07:40:32.188Z,99.90
2019-04-14T07:43:18.254Z,99.90
2019-04-14T07:45:57.934Z,99.90
2019-04-14T07:48:50.834Z,99.90
2019-04-14T07:51:39.761Z,99.90
2019-04-14T07:54:19.894Z,99.90
2019-04-14T07:57:13.374Z,99.90
2019-04-14T08:00:03.525Z,99.90
2019-04-14T08:02:45.405Z,99.90
2019-04-14T08:05:41.316Z,99.90
2019-04-14T08:08:12.549Z,99.90
2019-04-14T08:10:43.965Z,99.90
2019-04-14T08:13:15.348Z,99.90
2019-04-14T08:15:46.749Z,99.90
2019-04-14T08:18:18.062Z,99.90
2019-04-14T08:20:49.779Z,99.90
2019-04-14T08:23:22.258Z,99.90
2019-04-14T08:25:53.919Z,99.90
2019-04-14T08:28:25.582Z,99.90
2019-04-14T08:30:57.882Z,99.90
2019-04-14T08:33:29.240Z,99.90
2019-04-14T08:36:00.574Z,99.90
2019-04-14T08:38:31.830Z,99.90
2019-04-14T08:41:03.142Z,99.90
2019-04-14T08:43:53.265Z,99.90
2019-04-14T08:46:42.319Z,99.90
2019-04-14T08:49:44.360Z,99.90
2019-04-14T08:52:43.859Z,99.90
2019-04-14T08:55:35.518Z,99.90
2019-04-14T08:58:16.084Z,99.90
2019-04-14T09:01:06.460Z,99.90
2019-04-14T09:03:55.238Z,99.90
2019-04-14T09:06:44.731Z,99.90
2019-04-14T09:09:27.754Z,99.90
2019-04-14T09:12:14.530Z,99.90
2019-04-14T09:14:35.239Z,99.90
2019-04-14T09:17:07.694Z,99.90
2019-04-14T09:19:38.966Z,99.90
2019-04-14T09:22:10.140Z,99.90
2019-04-14T09:24:41.253Z,99.90
2019-04-14T09:27:12.590Z,99.90
2019-04-14T09:29:43.787Z,99.90
2019-04-14T09:32:15.451Z,99.90
2019-04-14T09:34:46.607Z,99.90
2019-04-14T09:37:18.109Z,99.90
2019-04-14T09:39:49.434Z,99.90
2019-04-14T09:42:20.793Z,99.90
2019-04-14T09:44:52.054Z,99.90
2019-04-14T09:47:23.384Z,99.90
2019-04-14T09:49:54.836Z,99.90
2019-04-14T09:52:26.127Z,99.90
2019-04-14T09:54:57.451Z,99.90
2019-04-14T09:57:28.613Z,99.90
2019-04-14T09:59:59.844Z,99.90
2019-04-14T10:02:31.056Z,99.90
2019-04-14T10:05:02.249Z,99.90
2019-04-14T10:07:33.651Z,99.90
2019-04-14T10:10:05.208Z,99.90
2019-04-14T10:12:36.440Z,99.90
2019-04-14T10:15:08.547Z,99.90
2019-04-14T10:17:39.865Z,99.90
2019-04-14T10:20:12.209Z,99.90
2019-04-14T10:22:43.535Z,99.90
2019-04-14T10:25:14.878Z,99.90
2019-04-14T10:27:46.084Z,99.90
2019-04-14T10:30:17.348Z,99.90
2019-04-14T10:32:48.909Z,99.90
2019-04-14T10:35:20.560Z,99.90
2019-04-14T10:37:51.906Z,99.90
2019-04-14T10:40:23.185Z,99.90
2019-04-14T10:42:54.508Z,99.90
2019-04-14T10:45:26.586Z,99.90
2019-04-14T10:47:57.931Z,99.90
2019-04-14T10:50:31.028Z,99.90
2019-04-14T10:53:02.174Z,99.90
2019-04-14T10:55:33.410Z,99.90
2019-04-14T10:58:04.893Z,99.90
2019-04-14T11:00:36.353Z,99.90
2019-04-14T11:03:07.787Z,99.90
2019-04-14T11:05:51.107Z,98.40
2019-04-14T11:08:22.389Z,97.20
2019-04-14T11:10:53.650Z,94.70
2019-04-14T11:13:25.127Z,92.80
2019-04-14T11:15:56.463Z,94.60
2019-04-14T11:18:27.881Z,91.40
2019-04-14T11:20:59.519Z,95.00
2019-04-14T11:23:30.775Z,91.30
2019-04-14T11:26:02.341Z,89.70
2019-04-14T11:28:35.223Z,89.40
2019-04-14T11:31:06.831Z,85.50
2019-04-14T11:33:55.890Z,83.50
2019-04-14T11:36:37.741Z,72.10
2019-04-14T11:39:12.192Z,76.90
2019-04-14T11:41:43.976Z,80.00
2019-04-14T11:44:17.111Z,79.40
2019-04-14T11:46:49.562Z,77.20
2019-04-14T11:49:21.852Z,74.30
2019-04-14T11:51:55.416Z,77.70
2019-04-14T11:54:27.198Z,80.60
2019-04-14T11:56:59.375Z,79.60
2019-04-14T11:59:44.879Z,82.90
2019-04-14T12:02:28.647Z,85.30
2019-04-14T12:05:07.017Z,82.80
2019-04-14T12:08:09.412Z,81.20
2019-04-14T12:10:41.260Z,78.40
2019-04-14T12:13:12.813Z,75.50
2019-04-14T12:15:44.534Z,78.90
2019-04-14T12:18:18.294Z,79.00
2019-04-14T12:20:53.871Z,77.70
2019-04-14T12:23:31.655Z,78.10
2019-04-14T12:26:05.518Z,79.00
2019-04-14T12:28:47.087Z,77.60
2019-04-14T12:31:22.685Z,76.20
2019-04-14T12:34:01.112Z,74.30
2019-04-14T12:36:32.383Z,73.90
2019-04-14T12:39:05.059Z,72.90
2019-04-14T12:41:42.906Z,73.10
2019-04-14T12:44:34.792Z,69.90
2019-04-14T12:47:23.901Z,68.50
2019-04-14T12:49:56.433Z,67.70
2019-04-14T12:52:28.376Z,62.80
2019-04-14T12:55:00.570Z,61.60
2019-04-14T12:57:35.343Z,61.30
2019-04-14T13:00:11.708Z,61.30
2019-04-14T13:02:46.499Z,59.00
2019-04-14T13:05:17.648Z,59.50
2019-04-14T13:07:48.894Z,60.10
2019-04-14T13:10:20.445Z,58.40
2019-04-14T13:12:51.661Z,58.20
2019-04-14T13:15:22.962Z,58.40
2019-04-14T13:17:54.160Z,58.80
2019-04-14T13:20:25.479Z,59.20
2019-04-14T13:22:56.712Z,59.80
2019-04-14T13:25:27.995Z,57.60
2019-04-14T13:27:59.463Z,59.10
2019-04-14T13:30:36.502Z,58.10
2019-04-14T13:33:07.831Z,59.90
2019-04-14T13:35:39.155Z,57.50
2019-04-14T13:38:10.443Z,57.50
2019-04-14T13:40:41.849Z,56.60
2019-04-14T13:43:13.121Z,56.20
2019-04-14T13:45:44.356Z,58.30
2019-04-14T13:48:15.612Z,56.30
2019-04-14T13:50:46.978Z,55.60
2019-04-14T13:53:18.220Z,56.00
2019-04-14T13:55:49.567Z,54.70
2019-04-14T13:58:21.149Z,55.20
2019-04-14T14:00:52.801Z,54.20
2019-04-14T14:03:24.068Z,54.10
2019-04-14T14:05:55.423Z,52.60
2019-04-14T14:08:27.042Z,52.60
2019-04-14T14:11:07.089Z,53.50
2019-04-14T14:13:46.414Z,53.40
2019-04-14T14:16:34.984Z,52.60
2019-04-14T14:19:31.267Z,52.30
2019-04-14T14:22:12.708Z,52.50
2019-04-14T14:25:03.178Z,52.80
2019-04-14T14:27:34.503Z,51.90
2019-04-14T14:30:06.993Z,52.70
2019-04-14T14:32:50.130Z,50.50
2019-04-14T14:35:21.933Z,50.40
2019-04-14T14:37:53.552Z,50.40
2019-04-14T14:40:24.757Z,49.40
2019-04-14T14:42:57.932Z,50.20
2019-04-14T14:45:50.704Z,50.50
2019-04-14T14:48:43.135Z,49.30
2019-04-14T14:51:24.711Z,49.10
2019-04-14T14:53:55.880Z,49.40
2019-04-14T14:56:27.498Z,48.30
2019-04-14T14:58:58.943Z,48.70
2019-04-14T15:01:30.301Z,48.70
2019-04-14T15:04:01.722Z,49.20
2019-04-14T15:06:33.152Z,47.40
2019-04-14T15:09:10.591Z,48.20
2019-04-14T15:11:43.247Z,49.30
2019-04-14T15:14:14.348Z,47.60
2019-04-14T15:16:45.646Z,47.30
2019-04-14T15:19:16.964Z,47.90
2019-04-14T15:21:48.279Z,46.40
2019-04-14T15:24:19.482Z,46.80
2019-04-14T15:26:51.360Z,47.50
2019-04-14T15:29:22.534Z,47.90
2019-04-14T15:31:53.763Z,48.10
2019-04-14T15:34:24.973Z,48.40
2019-04-14T15:36:56.211Z,47.90
2019-04-14T15:39:27.464Z,48.00
2019-04-14T15:41:58.682Z,48.40
2019-04-14T15:44:29.896Z,48.00
2019-04-14T15:47:01.172Z,48.30
2019-04-14T15:49:32.439Z,49.10
2019-04-14T15:52:03.610Z,48.30
2019-04-14T15:54:34.892Z,48.80
2019-04-14T15:57:27.993Z,49.10
2019-04-14T16:00:24.572Z,49.00
2019-04-14T16:03:07.861Z,49.60
2019-04-14T16:05:56.856Z,49.70
2019-04-14T16:08:40.561Z,49.60
2019-04-14T16:11:16.781Z,49.70
2019-04-14T16:14:06.864Z,51.00
2019-04-14T16:17:02.812Z,51.70
2019-04-14T16:19:39.060Z,51.90
2019-04-14T16:22:10.350Z,53.20
2019-04-14T16:24:41.623Z,54.40
2019-04-14T16:27:44.089Z,56.70
2019-04-14T16:30:49.706Z,57.70
2019-04-14T16:33:55.078Z,58.80
2019-04-14T16:36:27.637Z,59.80
2019-04-14T16:38:58.861Z,60.80
2019-04-14T16:41:32.446Z,61.10
2019-04-14T16:44:03.744Z,62.00
2019-04-14T16:46:35.066Z,62.50
2019-04-14T16:49:06.450Z,62.30
2019-04-14T16:51:43.971Z,63.30
2019-04-14T16:54:28.137Z,63.10
2019-04-14T16:57:30.016Z,63.70
2019-04-14T17:00:01.424Z,64.50
2019-04-14T17:02:34.016Z,64.40
2019-04-14T17:05:05.747Z,64.60
2019-04-14T17:07:38.677Z,64.70
2019-04-14T17:10:10.187Z,65.40
2019-04-14T17:12:41.527Z,66.20
2019-04-14T17:15:40.943Z,66.80
2019-04-14T17:18:29.168Z,66.40
2019-04-14T17:21:18.719Z,67.20
2019-04-14T17:24:03.717Z,67.90
2019-04-14T17:26:41.537Z,68.90
2019-04-14T17:29:17.782Z,69.70
2019-04-14T17:31:59.471Z,71.10
2019-04-14T17:34:45.890Z,71.50
2019-04-14T17:37:39.312Z,70.70
2019-04-14T17:40:23.885Z,71.80
2019-04-14T17:43:10.472Z,73.20
2019-04-14T17:46:06.796Z,75.50
2019-04-14T17:49:11.512Z,77.50
2019-04-14T17:51:52.447Z,78.30
2019-04-14T17:54:45.219Z,79.50
2019-04-14T17:57:50.883Z,81.30
2019-04-14T18:00:36.939Z,81.80
2019-04-14T18:03:28.818Z,83.40
2019-04-14T18:06:14.094Z,83.80
2019-04-14T18:09:22.955Z,85.10
2019-04-14T18:12:02.737Z,86.50
2019-04-14T18:14:58.751Z,85.50
2019-04-14T18:17:41.579Z,87.40
2019-04-14T18:20:23.104Z,86.50
2019-04-14T18:22:54.953Z,87.00
2019-04-14T18:25:26.684Z,87.70
2019-04-14T18:28:13.661Z,88.70
2019-04-14T18:30:51.475Z,88.90
2019-04-14T18:33:40.500Z,89.30
2019-04-14T18:36:20.609Z,90.40
2019-04-14T18:39:10.903Z,90.40
2019-04-14T18:41:59.321Z,90.20
2019-04-14T18:45:04.767Z,90.70
2019-04-14T18:47:46.323Z,90.20
2019-04-14T18:50:36.577Z,91.10
2019-04-14T18:53:11.639Z,91.80
2019-04-14T18:56:01.196Z,92.60
2019-04-14T18:58:54.744Z,93.00
2019-04-14T19:01:29.133Z,94.30
2019-04-14T19:04:02.464Z,94.40
2019-04-14T19:06:34.209Z,94.70
2019-04-14T19:09:08.028Z,95.00
2019-04-14T19:11:55.439Z,96.00
2019-04-14T19:14:30.281Z,96.10
2019-04-14T19:17:20.554Z,97.10
2019-04-14T19:20:01.548Z,96.60
2019-04-14T19:22:27.567Z,97.00
2019-04-14T19:25:08.085Z,97.30
2019-04-14T19:27:35.242Z,97.40
2019-04-14T19:30:07.342Z,97.70
2019-04-14T19:32:38.760Z,96.70
2019-04-14T19:35:10.578Z,97.20
2019-04-14T19:37:42.116Z,96.90
2019-04-14T19:40:13.792Z,96.40
2019-04-14T19:42:45.393Z,96.00
2019-04-14T19:45:17.109Z,96.40
2019-04-14T19:47:48.485Z,96.20
2019-04-14T19:50:20.067Z,95.80
2019-04-14T19:52:51.680Z,96.50
2019-04-14T19:55:23.143Z,96.40
2019-04-14T19:57:54.864Z,96.70
2019-04-14T20:00:26.179Z,96.30
2019-04-14T20:02:57.512Z,97.00
2019-04-14T20:05:28.810Z,97.80
2019-04-14T20:08:00.120Z,96.60
2019-04-14T20:10:31.376Z,96.80
2019-04-14T20:13:02.743Z,96.70
2019-04-14T20:15:46.100Z,97.70
2019-04-14T20:18:33.514Z,98.10
2019-04-14T20:21:22.137Z,98.30
2019-04-14T20:24:02.964Z,98.60
2019-04-14T20:26:51.478Z,98.00
2019-04-14T20:29:29.334Z,98.70
2019-04-14T20:32:12.042Z,98.40
2019-04-14T20:34:43.410Z,99.00
2019-04-14T20:37:15.614Z,99.40
2019-04-14T20:39:47.580Z,99.90
2019-04-14T20:42:19.256Z,99.90
2019-04-14T20:44:51.184Z,99.90
2019-04-14T20:47:23.557Z,99.90
2019-04-14T20:49:54.957Z,99.90
2019-04-14T20:52:26.428Z,99.90
2019-04-14T20:54:58.624Z,99.90
2019-04-14T20:57:30.556Z,99.90
2019-04-14T21:00:02.342Z,99.90
2019-04-14T21:02:55.653Z,99.90
2019-04-14T21:05:53.080Z,99.90
2019-04-14T21:08:42.163Z,99.90
2019-04-14T21:11:23.573Z,99.90
2019-04-14T21:14:17.795Z,99.90
2019-04-14T21:17:07.923Z,99.90
2019-04-14T21:19:53.258Z,99.90
2019-04-14T21:22:33.802Z,99.90
2019-04-14T21:25:13.965Z,99.90
2019-04-14T21:28:00.471Z,99.90
2019-04-14T21:30:38.138Z,99.90
2019-04-14T21:33:28.475Z,99.90
2019-04-14T21:36:25.037Z,99.90
2019-04-14T21:39:11.724Z,99.90
2019-04-14T21:41:44.337Z,99.90
2019-04-14T21:44:15.549Z,99.90
2019-04-14T21:46:46.829Z,99.90
2019-04-14T21:49:18.274Z,99.90
2019-04-14T21:52:23.519Z,99.90
2019-04-14T21:54:54.737Z,99.90
2019-04-14T21:57:35.355Z,99.90
2019-04-14T22:00:35.630Z,99.90
2019-04-14T22:03:33.204Z,99.90
2019-04-14T22:06:13.224Z,99.90
2019-04-14T22:08:48.774Z,99.90
2019-04-14T22:11:22.119Z,99.90
2019-04-14T22:13:53.663Z,99.90
2019-04-14T22:16:25.056Z,99.90
2019-04-14T22:18:56.271Z,99.90
2019-04-14T22:21:27.496Z,99.90
2019-04-14T22:24:01.713Z,99.90
2019-04-14T22:26:31.761Z,99.90
2019-04-14T22:29:02.960Z,99.90
2019-04-14T22:31:34.230Z,99.90
2019-04-14T22:34:05.692Z,99.90
2019-04-14T22:36:37.308Z,99.90
2019-04-14T22:39:10.191Z,99.90
2019-04-14T22:41:41.525Z,99.90
2019-04-14T22:44:12.758Z,99.90
2019-04-14T22:46:43.934Z,99.90
2019-04-14T22:49:15.175Z,99.90
2019-04-14T22:51:46.388Z,99.90
2019-04-14T22:54:17.762Z,99.90
2019-04-14T22:56:48.901Z,99.90
2019-04-14T22:59:20.138Z,99.90
2019-04-14T23:01:56.960Z,99.90
2019-04-14T23:04:47.054Z,99.90
2019-04-14T23:07:38.304Z,99.90
2019-04-14T23:10:17.568Z,99.90
2019-04-14T23:13:06.169Z,99.90
2019-04-14T23:16:02.521Z,99.90
2019-04-14T23:18:47.822Z,99.90
2019-04-14T23:21:36.406Z,99.90
2019-04-14T23:24:24.858Z,99.90
2019-04-14T23:26:56.188Z,99.90
2019-04-14T23:29:27.735Z,99.90
2019-04-14T23:31:58.999Z,99.90
2019-04-14T23:34:30.309Z,99.90
2019-04-14T23:37:01.424Z,99.90
2019-04-14T23:39:32.603Z,99.90
2019-04-14T23:42:03.686Z,99.90
2019-04-14T23:44:34.904Z,99.90
2019-04-14T23:47:07.157Z,99.90
2019-04-14T23:49:38.233Z,99.90
2019-04-14T23:52:09.481Z,99.90
2019-04-14T23:54:41.693Z,99.90
2019-04-14T23:57:12.788Z,99.90
2019-04-14T23:59:43.915Z,99.90
